sensor_id;sensor_type;location;lat;lon;timestamp;pressure;altitude;pressure_sealevel;temperature;humidity
46394;BME280;32099;53.588;10.176;2022-12-07T00:01:35;100851.47;;;3.68;84.28
46394;BME280;32099;53.588;10.176;2022-12-07T00:04:03;100845.94;;;3.69;84.65
46394;BME280;32099;53.588;10.176;2022-12-07T00:06:30;100842.66;;;3.66;85.71
46394;BME280;32099;53.588;10.176;2022-12-07T00:08:57;100832.31;;;3.71;85.15
46394;BME280;32099;53.588;10.176;2022-12-07T00:11:23;100841.69;;;3.77;85.64
46394;BME280;32099;53.588;10.176;2022-12-07T00:13:55;100834.19;;;3.80;86.92
46394;BME280;32099;53.588;10.176;2022-12-07T00:16:24;100818.72;;;3.82;86.50
46394;BME280;32099;53.588;10.176;2022-12-07T00:18:51;100818.44;;;3.85;86.27
46394;BME280;32099;53.588;10.176;2022-12-07T00:21:20;100810.19;;;3.87;86.73
46394;BME280;32099;53.588;10.176;2022-12-07T00:23:49;100808.09;;;3.91;86.99
46394;BME280;32099;53.588;10.176;2022-12-07T00:26:16;100803.28;;;3.94;87.09
46394;BME280;32099;53.588;10.176;2022-12-07T00:28:53;100793.91;;;3.98;86.96
46394;BME280;32099;53.588;10.176;2022-12-07T00:31:25;100796.47;;;4.00;86.74
46394;BME280;32099;53.588;10.176;2022-12-07T00:33:52;100788.69;;;4.07;86.53
46394;BME280;32099;53.588;10.176;2022-12-07T00:36:18;100788.25;;;4.11;86.59
46394;BME280;32099;53.588;10.176;2022-12-07T00:38:45;100794.38;;;4.13;85.77
46394;BME280;32099;53.588;10.176;2022-12-07T00:41:14;100784.28;;;4.15;85.88
46394;BME280;32099;53.588;10.176;2022-12-07T00:43:44;100788.69;;;4.16;86.17
46394;BME280;32099;53.588;10.176;2022-12-07T00:46:11;100779.47;;;4.19;86.20
46394;BME280;32099;53.588;10.176;2022-12-07T00:48:37;100782.84;;;4.21;85.95
46394;BME280;32099;53.588;10.176;2022-12-07T00:51:03;100774.63;;;4.23;86.12
46394;BME280;32099;53.588;10.176;2022-12-07T00:53:28;100775.03;;;4.28;85.91
46394;BME280;32099;53.588;10.176;2022-12-07T00:55:54;100772.06;;;4.31;86.21
46394;BME280;32099;53.588;10.176;2022-12-07T00:58:21;100765.69;;;4.32;86.23
46394;BME280;32099;53.588;10.176;2022-12-07T01:00:46;100758.72;;;4.29;86.46
46394;BME280;32099;53.588;10.176;2022-12-07T01:03:12;100759.84;;;4.27;86.64
46394;BME280;32099;53.588;10.176;2022-12-07T01:05:49;100760.16;;;4.24;86.50
46394;BME280;32099;53.588;10.176;2022-12-07T01:08:16;100760.16;;;4.24;86.54
46394;BME280;32099;53.588;10.176;2022-12-07T01:10:41;100755.44;;;4.26;87.09
46394;BME280;32099;53.588;10.176;2022-12-07T01:13:06;100755.16;;;4.29;86.57
46394;BME280;32099;53.588;10.176;2022-12-07T01:15:31;100749.47;;;4.32;87.24
46394;BME280;32099;53.588;10.176;2022-12-07T01:17:57;100754.59;;;4.35;86.39
46394;BME280;32099;53.588;10.176;2022-12-07T01:20:22;100738.25;;;4.37;86.83
46394;BME280;32099;53.588;10.176;2022-12-07T01:22:47;100744.50;;;4.37;87.61
46394;BME280;32099;53.588;10.176;2022-12-07T01:25:12;100731.00;;;4.37;86.95
46394;BME280;32099;53.588;10.176;2022-12-07T01:27:38;100739.97;;;4.38;87.34
46394;BME280;32099;53.588;10.176;2022-12-07T01:30:04;100739.97;;;4.38;87.35
46394;BME280;32099;53.588;10.176;2022-12-07T01:32:31;100737.25;;;4.38;87.25
46394;BME280;32099;53.588;10.176;2022-12-07T01:34:57;100736.28;;;4.39;87.46
46394;BME280;32099;53.588;10.176;2022-12-07T01:37:22;100738.69;;;4.42;86.82
46394;BME280;32099;53.588;10.176;2022-12-07T01:39:48;100737.69;;;4.43;87.25
46394;BME280;32099;53.588;10.176;2022-12-07T01:42:14;100733.97;;;4.44;87.76
46394;BME280;32099;53.588;10.176;2022-12-07T01:48:01;100739.38;;;4.44;87.24
46394;BME280;32099;53.588;10.176;2022-12-07T01:50:26;100736.00;;;4.42;87.11
46394;BME280;32099;53.588;10.176;2022-12-07T01:52:56;100733.00;;;4.35;87.23
46394;BME280;32099;53.588;10.176;2022-12-07T01:55:24;100723.59;;;4.39;86.97
46394;BME280;32099;53.588;10.176;2022-12-07T01:57:50;100733.69;;;4.37;86.89
46394;BME280;32099;53.588;10.176;2022-12-07T02:00:19;100732.84;;;4.37;86.86
46394;BME280;32099;53.588;10.176;2022-12-07T02:03:00;100728.88;;;4.31;86.62
46394;BME280;32099;53.588;10.176;2022-12-07T02:05:31;100732.56;;;4.30;86.75
46394;BME280;32099;53.588;10.176;2022-12-07T02:07:58;100725.19;;;4.32;86.68
46394;BME280;32099;53.588;10.176;2022-12-07T02:10:28;100729.03;;;4.29;86.19
46394;BME280;32099;53.588;10.176;2022-12-07T02:13:04;100718.22;;;4.29;86.38
46394;BME280;32099;53.588;10.176;2022-12-07T02:18:52;100718.66;;;4.25;86.39
46394;BME280;32099;53.588;10.176;2022-12-07T02:21:34;100710.97;;;4.20;86.48
46394;BME280;32099;53.588;10.176;2022-12-07T02:27:40;100715.41;;;4.11;86.54
46394;BME280;32099;53.588;10.176;2022-12-07T02:30:19;100720.50;;;4.05;86.23
46394;BME280;32099;53.588;10.176;2022-12-07T02:35:34;100721.91;;;3.99;86.47
46394;BME280;32099;53.588;10.176;2022-12-07T02:38:26;100710.25;;;3.98;86.92
46394;BME280;32099;53.588;10.176;2022-12-07T02:43:35;100719.50;;;4.06;86.89
46394;BME280;32099;53.588;10.176;2022-12-07T02:46:09;100713.25;;;4.05;86.25
46394;BME280;32099;53.588;10.176;2022-12-07T02:48:39;100720.63;;;4.03;86.68
46394;BME280;32099;53.588;10.176;2022-12-07T02:51:07;100708.28;;;4.00;86.88
46394;BME280;32099;53.588;10.176;2022-12-07T02:53:40;100711.69;;;4.03;86.92
46394;BME280;32099;53.588;10.176;2022-12-07T02:56:30;100720.50;;;4.05;86.87
46394;BME280;32099;53.588;10.176;2022-12-07T02:59:04;100719.34;;;4.07;86.87
46394;BME280;32099;53.588;10.176;2022-12-07T03:04:28;100719.06;;;4.00;86.72
46394;BME280;32099;53.588;10.176;2022-12-07T03:07:26;100724.34;;;4.02;86.89
46394;BME280;32099;53.588;10.176;2022-12-07T03:12:51;100717.34;;;3.99;85.35
46394;BME280;32099;53.588;10.176;2022-12-07T03:15:33;100716.78;;;3.96;85.39
46394;BME280;32099;53.588;10.176;2022-12-07T03:18:06;100723.59;;;3.90;85.04
46394;BME280;32099;53.588;10.176;2022-12-07T03:20:35;100722.47;;;3.83;85.04
46394;BME280;32099;53.588;10.176;2022-12-07T03:23:04;100717.50;;;3.78;86.14
46394;BME280;32099;53.588;10.176;2022-12-07T03:25:34;100713.34;;;3.74;85.72
46394;BME280;32099;53.588;10.176;2022-12-07T03:28:04;100713.78;;;3.69;85.84
46394;BME280;32099;53.588;10.176;2022-12-07T03:33:01;100717.88;;;3.64;85.62
46394;BME280;32099;53.588;10.176;2022-12-07T03:35:33;100708.22;;;3.61;85.79
46394;BME280;32099;53.588;10.176;2022-12-07T03:38:11;100705.97;;;3.57;85.17
46394;BME280;32099;53.588;10.176;2022-12-07T03:40:47;100710.75;;;3.53;85.35
46394;BME280;32099;53.588;10.176;2022-12-07T03:43:20;100704.94;;;3.48;85.46
46394;BME280;32099;53.588;10.176;2022-12-07T03:46:00;100719.81;;;3.42;85.72
46394;BME280;32099;53.588;10.176;2022-12-07T03:53:58;100719.19;;;3.29;85.84
46394;BME280;32099;53.588;10.176;2022-12-07T03:56:31;100716.75;;;3.26;85.81
46394;BME280;32099;53.588;10.176;2022-12-07T03:58:58;100717.47;;;3.28;85.22
46394;BME280;32099;53.588;10.176;2022-12-07T04:01:24;100720.34;;;3.26;85.62
46394;BME280;32099;53.588;10.176;2022-12-07T04:03:49;100721.44;;;3.23;85.57
46394;BME280;32099;53.588;10.176;2022-12-07T04:06:15;100728.94;;;3.20;84.96
46394;BME280;32099;53.588;10.176;2022-12-07T04:08:40;100723.81;;;3.17;84.94
46394;BME280;32099;53.588;10.176;2022-12-07T04:11:06;100726.66;;;3.15;84.92
46394;BME280;32099;53.588;10.176;2022-12-07T04:13:31;100713.31;;;3.14;85.25
46394;BME280;32099;53.588;10.176;2022-12-07T04:16:16;100723.66;;;3.08;84.82
46394;BME280;32099;53.588;10.176;2022-12-07T04:18:41;100730.03;;;3.07;84.81
46394;BME280;32099;53.588;10.176;2022-12-07T04:21:07;100721.22;;;3.05;84.81
46394;BME280;32099;53.588;10.176;2022-12-07T04:23:32;100723.47;;;3.00;84.94
46394;BME280;32099;53.588;10.176;2022-12-07T04:25:57;100728.41;;;2.95;85.20
46394;BME280;32099;53.588;10.176;2022-12-07T04:28:22;100722.31;;;2.93;85.22
46394;BME280;32099;53.588;10.176;2022-12-07T04:30:48;100737.59;;;2.92;85.80
46394;BME280;32099;53.588;10.176;2022-12-07T04:33:13;100725.84;;;2.93;85.23
46394;BME280;32099;53.588;10.176;2022-12-07T04:35:38;100735.78;;;2.93;84.77
46394;BME280;32099;53.588;10.176;2022-12-07T04:38:04;100736.75;;;2.92;85.00
46394;BME280;32099;53.588;10.176;2022-12-07T04:40:29;100739.00;;;2.87;84.21
46394;BME280;32099;53.588;10.176;2022-12-07T04:42:54;100737.69;;;2.81;84.73
46394;BME280;32099;53.588;10.176;2022-12-07T04:45:19;100735.25;;;2.78;84.65
46394;BME280;32099;53.588;10.176;2022-12-07T04:47:45;100741.03;;;2.73;84.55
46394;BME280;32099;53.588;10.176;2022-12-07T04:50:10;100738.63;;;2.70;84.47
46394;BME280;32099;53.588;10.176;2022-12-07T04:52:35;100741.31;;;2.70;84.54
46394;BME280;32099;53.588;10.176;2022-12-07T04:55:01;100741.56;;;2.67;84.51
46394;BME280;32099;53.588;10.176;2022-12-07T04:57:26;100737.44;;;2.63;84.83
46394;BME280;32099;53.588;10.176;2022-12-07T04:59:51;100740.25;;;2.61;84.48
46394;BME280;32099;53.588;10.176;2022-12-07T05:02:17;100738.66;;;2.59;84.64
46394;BME280;32099;53.588;10.176;2022-12-07T05:04:42;100737.97;;;2.57;85.50
46394;BME280;32099;53.588;10.176;2022-12-07T05:07:07;100733.56;;;2.56;85.24
46394;BME280;32099;53.588;10.176;2022-12-07T05:09:32;100737.97;;;2.57;85.31
46394;BME280;32099;53.588;10.176;2022-12-07T05:11:58;100731.72;;;2.56;84.66
46394;BME280;32099;53.588;10.176;2022-12-07T05:14:23;100736.50;;;2.53;85.23
46394;BME280;32099;53.588;10.176;2022-12-07T05:16:49;100734.53;;;2.55;84.81
46394;BME280;32099;53.588;10.176;2022-12-07T05:19:16;100743.47;;;2.55;84.72
46394;BME280;32099;53.588;10.176;2022-12-07T05:21:42;100732.84;;;2.54;84.83
46394;BME280;32099;53.588;10.176;2022-12-07T05:24:08;100733.69;;;2.54;84.34
46394;BME280;32099;53.588;10.176;2022-12-07T05:26:36;100735.66;;;2.52;84.66
46394;BME280;32099;53.588;10.176;2022-12-07T05:29:02;100732.25;;;2.50;84.14
46394;BME280;32099;53.588;10.176;2022-12-07T05:31:27;100736.91;;;2.48;84.31
46394;BME280;32099;53.588;10.176;2022-12-07T05:33:53;100730.78;;;2.46;84.27
46394;BME280;32099;53.588;10.176;2022-12-07T05:36:19;100731.78;;;2.45;83.85
46394;BME280;32099;53.588;10.176;2022-12-07T05:38:44;100730.59;;;2.38;84.11
46394;BME280;32099;53.588;10.176;2022-12-07T05:41:12;100730.59;;;2.38;83.57
46394;BME280;32099;53.588;10.176;2022-12-07T05:43:59;100735.38;;;2.34;83.83
46394;BME280;32099;53.588;10.176;2022-12-07T05:46:25;100740.16;;;2.30;83.91
46394;BME280;32099;53.588;10.176;2022-12-07T05:48:51;100739.56;;;2.27;83.59
46394;BME280;32099;53.588;10.176;2022-12-07T05:51:16;100742.66;;;2.22;83.81
46394;BME280;32099;53.588;10.176;2022-12-07T05:53:42;100729.34;;;2.21;84.08
46394;BME280;32099;53.588;10.176;2022-12-07T05:56:07;100729.56;;;2.18;83.93
46394;BME280;32099;53.588;10.176;2022-12-07T05:58:32;100725.31;;;2.15;83.68
46394;BME280;32099;53.588;10.176;2022-12-07T06:01:16;100723.84;;;2.11;84.67
46394;BME280;32099;53.588;10.176;2022-12-07T06:03:41;100727.28;;;2.13;84.43
46394;BME280;32099;53.588;10.176;2022-12-07T06:06:07;100726.28;;;2.14;83.95
46394;BME280;32099;53.588;10.176;2022-12-07T06:08:32;100719.22;;;2.13;83.67
46394;BME280;32099;53.588;10.176;2022-12-07T06:10:57;100727.53;;;2.10;83.76
46394;BME280;32099;53.588;10.176;2022-12-07T06:13:41;100729.75;;;2.05;83.60
46394;BME280;32099;53.588;10.176;2022-12-07T06:16:06;100730.16;;;2.00;83.57
46394;BME280;32099;53.588;10.176;2022-12-07T06:18:32;100723.16;;;1.97;84.08
46394;BME280;32099;53.588;10.176;2022-12-07T06:20:57;100730.41;;;1.97;83.90
46394;BME280;32099;53.588;10.176;2022-12-07T06:23:23;100725.03;;;1.97;84.13
46394;BME280;32099;53.588;10.176;2022-12-07T06:25:48;100729.66;;;1.95;83.71
46394;BME280;32099;53.588;10.176;2022-12-07T06:28:13;100718.91;;;1.95;84.09
46394;BME280;32099;53.588;10.176;2022-12-07T06:30:39;100723.44;;;1.94;84.06
46394;BME280;32099;53.588;10.176;2022-12-07T06:33:04;100718.19;;;1.93;84.80
46394;BME280;32099;53.588;10.176;2022-12-07T06:35:29;100722.47;;;1.95;84.74
46394;BME280;32099;53.588;10.176;2022-12-07T06:37:54;100721.47;;;1.96;84.36
46394;BME280;32099;53.588;10.176;2022-12-07T06:40:20;100716.81;;;1.98;84.31
46394;BME280;32099;53.588;10.176;2022-12-07T06:42:45;100715.38;;;1.94;84.73
46394;BME280;32099;53.588;10.176;2022-12-07T06:45:10;100715.25;;;1.96;84.82
46394;BME280;32099;53.588;10.176;2022-12-07T06:47:35;100712.31;;;1.99;84.75
46394;BME280;32099;53.588;10.176;2022-12-07T06:50:01;100722.09;;;2.00;84.92
46394;BME280;32099;53.588;10.176;2022-12-07T06:52:27;100721.81;;;2.03;84.81
46394;BME280;32099;53.588;10.176;2022-12-07T06:54:52;100723.13;;;2.09;84.96
46394;BME280;32099;53.588;10.176;2022-12-07T06:57:18;100724.59;;;2.13;84.54
46394;BME280;32099;53.588;10.176;2022-12-07T06:59:45;100718.09;;;2.15;84.53
46394;BME280;32099;53.588;10.176;2022-12-07T07:02:10;100712.72;;;2.15;84.84
46394;BME280;32099;53.588;10.176;2022-12-07T07:04:35;100721.50;;;2.18;84.71
46394;BME280;32099;53.588;10.176;2022-12-07T07:07:00;100714.16;;;2.20;84.00
46394;BME280;32099;53.588;10.176;2022-12-07T07:09:26;100723.94;;;2.21;84.30
46394;BME280;32099;53.588;10.176;2022-12-07T07:11:52;100724.94;;;2.20;84.58
46394;BME280;32099;53.588;10.176;2022-12-07T07:14:17;100722.25;;;2.20;84.67
46394;BME280;32099;53.588;10.176;2022-12-07T07:16:43;100716.72;;;2.21;84.56
46394;BME280;32099;53.588;10.176;2022-12-07T07:19:09;100720.28;;;2.22;84.52
46394;BME280;32099;53.588;10.176;2022-12-07T07:21:34;100726.38;;;2.24;85.18
46394;BME280;32099;53.588;10.176;2022-12-07T07:24:00;100722.59;;;2.26;85.16
46394;BME280;32099;53.588;10.176;2022-12-07T07:26:25;100719.75;;;2.28;85.39
46394;BME280;32099;53.588;10.176;2022-12-07T07:28:50;100720.22;;;2.33;85.27
46394;BME280;32099;53.588;10.176;2022-12-07T07:31:15;100719.09;;;2.36;85.57
46394;BME280;32099;53.588;10.176;2022-12-07T07:33:41;100722.38;;;2.39;85.38
46394;BME280;32099;53.588;10.176;2022-12-07T07:36:06;100718.47;;;2.43;85.43
46394;BME280;32099;53.588;10.176;2022-12-07T07:38:31;100732.50;;;2.47;85.59
46394;BME280;32099;53.588;10.176;2022-12-07T07:40:57;100732.25;;;2.50;86.00
46394;BME280;32099;53.588;10.176;2022-12-07T07:43:22;100739.06;;;2.54;86.09
46394;BME280;32099;53.588;10.176;2022-12-07T07:45:47;100744.03;;;2.59;85.51
46394;BME280;32099;53.588;10.176;2022-12-07T07:48:13;100736.84;;;2.59;86.09
46394;BME280;32099;53.588;10.176;2022-12-07T07:50:38;100742.09;;;2.61;85.85
46394;BME280;32099;53.588;10.176;2022-12-07T07:53:03;100746.22;;;2.65;85.62
46394;BME280;32099;53.588;10.176;2022-12-07T07:55:28;100748.53;;;2.70;85.59
46394;BME280;32099;53.588;10.176;2022-12-07T07:57:54;100748.72;;;2.78;85.49
46394;BME280;32099;53.588;10.176;2022-12-07T08:00:19;100741.25;;;2.82;85.46
46394;BME280;32099;53.588;10.176;2022-12-07T08:02:44;100739.25;;;2.84;85.63
46394;BME280;32099;53.588;10.176;2022-12-07T08:05:11;100738.16;;;2.86;85.36
46394;BME280;32099;53.588;10.176;2022-12-07T08:07:37;100741.44;;;2.90;85.38
46394;BME280;32099;53.588;10.176;2022-12-07T08:10:03;100746.56;;;2.93;85.06
46394;BME280;32099;53.588;10.176;2022-12-07T08:12:28;100746.25;;;2.96;85.11
46394;BME280;32099;53.588;10.176;2022-12-07T08:14:54;100747.88;;;2.99;84.64
46394;BME280;32099;53.588;10.176;2022-12-07T08:17:19;100738.75;;;3.00;84.93
46394;BME280;32099;53.588;10.176;2022-12-07T08:19:44;100755.41;;;3.05;84.89
46394;BME280;32099;53.588;10.176;2022-12-07T08:22:09;100752.44;;;3.08;84.68
46394;BME280;32099;53.588;10.176;2022-12-07T08:24:35;100752.28;;;3.09;84.56
46394;BME280;32099;53.588;10.176;2022-12-07T08:27:01;100752.03;;;3.13;84.96
46394;BME280;32099;53.588;10.176;2022-12-07T08:29:27;100743.69;;;3.16;84.22
46394;BME280;32099;53.588;10.176;2022-12-07T08:31:52;100739.72;;;3.20;84.62
46394;BME280;32099;53.588;10.176;2022-12-07T08:34:17;100747.41;;;3.24;84.26
46394;BME280;32099;53.588;10.176;2022-12-07T08:36:42;100740.03;;;3.27;84.01
46394;BME280;32099;53.588;10.176;2022-12-07T08:39:08;100732.66;;;3.29;84.56
46394;BME280;32099;53.588;10.176;2022-12-07T08:41:33;100736.81;;;3.33;84.41
46394;BME280;32099;53.588;10.176;2022-12-07T08:43:58;100737.66;;;3.33;84.65
46394;BME280;32099;53.588;10.176;2022-12-07T08:46:29;100741.50;;;3.40;84.25
46394;BME280;32099;53.588;10.176;2022-12-07T08:49:10;100742.22;;;3.43;84.54
46394;BME280;32099;53.588;10.176;2022-12-07T08:51:38;100738.53;;;3.44;84.91
46394;BME280;32099;53.588;10.176;2022-12-07T08:54:04;100737.28;;;3.48;84.22
46394;BME280;32099;53.588;10.176;2022-12-07T08:56:33;100745.06;;;3.51;84.02
46394;BME280;32099;53.588;10.176;2022-12-07T08:58:59;100744.97;;;3.52;84.40
46394;BME280;32099;53.588;10.176;2022-12-07T09:01:25;100735.16;;;3.51;84.50
46394;BME280;32099;53.588;10.176;2022-12-07T09:03:50;100745.13;;;3.61;84.58
46394;BME280;32099;53.588;10.176;2022-12-07T09:06:16;100755.63;;;3.64;84.59
46394;BME280;32099;53.588;10.176;2022-12-07T09:08:42;100758.63;;;3.70;84.07
46394;BME280;32099;53.588;10.176;2022-12-07T09:11:12;100752.09;;;3.73;84.18
46394;BME280;32099;53.588;10.176;2022-12-07T09:13:37;100745.72;;;3.74;84.11
46394;BME280;32099;53.588;10.176;2022-12-07T09:16:02;100753.69;;;3.85;84.09
46394;BME280;32099;53.588;10.176;2022-12-07T09:18:28;100749.03;;;3.88;84.11
46394;BME280;32099;53.588;10.176;2022-12-07T09:20:53;100751.72;;;3.88;83.93
46394;BME280;32099;53.588;10.176;2022-12-07T09:23:18;100754.84;;;3.93;84.19
46394;BME280;32099;53.588;10.176;2022-12-07T09:25:43;100754.41;;;3.97;84.64
46394;BME280;32099;53.588;10.176;2022-12-07T09:28:09;100743.22;;;4.02;84.05
46394;BME280;32099;53.588;10.176;2022-12-07T09:30:34;100747.34;;;4.06;83.72
46394;BME280;32099;53.588;10.176;2022-12-07T09:33:00;100747.22;;;4.08;84.10
46394;BME280;32099;53.588;10.176;2022-12-07T09:35:25;100740.66;;;4.10;84.60
46394;BME280;32099;53.588;10.176;2022-12-07T09:37:51;100754.00;;;4.12;84.17
46394;BME280;32099;53.588;10.176;2022-12-07T09:40:16;100747.19;;;4.17;84.38
46394;BME280;32099;53.588;10.176;2022-12-07T09:42:45;100756.47;;;4.25;84.42
46394;BME280;32099;53.588;10.176;2022-12-07T09:45:24;100753.91;;;4.33;84.13
46394;BME280;32099;53.588;10.176;2022-12-07T09:47:55;100756.31;;;4.36;84.06
46394;BME280;32099;53.588;10.176;2022-12-07T09:50:23;100755.16;;;4.39;83.77
46394;BME280;32099;53.588;10.176;2022-12-07T09:52:50;100753.19;;;4.41;84.47
46394;BME280;32099;53.588;10.176;2022-12-07T09:55:22;100752.75;;;4.45;83.92
46394;BME280;32099;53.588;10.176;2022-12-07T09:57:51;100748.91;;;4.48;83.88
46394;BME280;32099;53.588;10.176;2022-12-07T10:00:18;100746.75;;;4.52;83.29
46394;BME280;32099;53.588;10.176;2022-12-07T10:02:47;100747.47;;;4.54;83.68
46394;BME280;32099;53.588;10.176;2022-12-07T10:05:21;100739.81;;;4.59;83.76
46394;BME280;32099;53.588;10.176;2022-12-07T10:07:51;100741.75;;;4.67;83.83
46394;BME280;32099;53.588;10.176;2022-12-07T10:10:24;100743.03;;;4.72;84.15
46394;BME280;32099;53.588;10.176;2022-12-07T10:13:02;100741.75;;;4.76;83.72
46394;BME280;32099;53.588;10.176;2022-12-07T10:15:43;100742.03;;;4.83;82.42
46394;BME280;32099;53.588;10.176;2022-12-07T10:20:45;100736.75;;;4.91;83.01
46394;BME280;32099;53.588;10.176;2022-12-07T10:23:16;100735.31;;;4.97;83.40
46394;BME280;32099;53.588;10.176;2022-12-07T10:25:42;100739.28;;;5.03;82.89
46394;BME280;32099;53.588;10.176;2022-12-07T10:30:46;100736.56;;;5.03;82.70
46394;BME280;32099;53.588;10.176;2022-12-07T10:36:16;100731.59;;;5.08;82.16
46394;BME280;32099;53.588;10.176;2022-12-07T10:38:46;100734.41;;;5.06;81.47
46394;BME280;32099;53.588;10.176;2022-12-07T10:41:32;100737.28;;;5.05;81.20
46394;BME280;32099;53.588;10.176;2022-12-07T10:43:57;100733.41;;;5.07;82.08
46394;BME280;32099;53.588;10.176;2022-12-07T10:49:15;100740.09;;;5.13;80.45
46394;BME280;32099;53.588;10.176;2022-12-07T10:59:48;100735.84;;;5.01;80.89
46394;BME280;32099;53.588;10.176;2022-12-07T11:05:15;100724.19;;;5.10;82.07
46394;BME280;32099;53.588;10.176;2022-12-07T11:08:00;100721.47;;;5.10;81.26
46394;BME280;32099;53.588;10.176;2022-12-07T11:13:11;100718.19;;;5.06;80.23
46394;BME280;32099;53.588;10.176;2022-12-07T11:18:43;100709.34;;;5.14;79.78
46394;BME280;32099;53.588;10.176;2022-12-07T11:24:17;100702.94;;;5.15;80.15
46394;BME280;32099;53.588;10.176;2022-12-07T11:29:44;100695.84;;;5.14;80.69
46394;BME280;32099;53.588;10.176;2022-12-07T11:37:40;100697.84;;;5.12;78.64
46394;BME280;32099;53.588;10.176;2022-12-07T11:40:17;100703.56;;;5.09;78.53
46394;BME280;32099;53.588;10.176;2022-12-07T11:42:51;100706.97;;;5.11;79.49
46394;BME280;32099;53.588;10.176;2022-12-07T11:45:32;100696.84;;;5.13;77.74
46394;BME280;32099;53.588;10.176;2022-12-07T11:48:03;100689.59;;;5.14;79.11
46394;BME280;32099;53.588;10.176;2022-12-07T11:50:44;100685.03;;;5.14;79.13
46394;BME280;32099;53.588;10.176;2022-12-07T11:53:20;100690.97;;;5.18;77.47
46394;BME280;32099;53.588;10.176;2022-12-07T11:55:57;100690.16;;;5.17;78.05
46394;BME280;32099;53.588;10.176;2022-12-07T11:58:48;100689.31;;;5.17;78.41
46394;BME280;32099;53.588;10.176;2022-12-07T12:03:42;100683.53;;;5.30;78.22
46394;BME280;32099;53.588;10.176;2022-12-07T12:06:11;100686.09;;;5.31;77.06
46394;BME280;32099;53.588;10.176;2022-12-07T12:08:38;100677.97;;;5.31;76.12
46394;BME280;32099;53.588;10.176;2022-12-07T12:14:11;100674.97;;;5.34;78.47
46394;BME280;32099;53.588;10.176;2022-12-07T12:16:58;100672.44;;;5.33;76.63
46394;BME280;32099;53.588;10.176;2022-12-07T12:19:45;100686.94;;;5.32;76.42
46394;BME280;32099;53.588;10.176;2022-12-07T12:22:28;100668.59;;;5.25;74.91
46394;BME280;32099;53.588;10.176;2022-12-07T12:25:02;100674.47;;;5.21;74.30
46394;BME280;32099;53.588;10.176;2022-12-07T12:27:32;100678.34;;;5.18;74.42
46394;BME280;32099;53.588;10.176;2022-12-07T12:30:05;100664.81;;;5.18;76.72
46394;BME280;32099;53.588;10.176;2022-12-07T12:32:48;100671.06;;;5.19;75.92
46394;BME280;32099;53.588;10.176;2022-12-07T12:35:21;100671.06;;;5.19;76.19
46394;BME280;32099;53.588;10.176;2022-12-07T12:37:53;100668.69;;;5.16;73.15
46394;BME280;32099;53.588;10.176;2022-12-07T12:45:27;100674.75;;;5.18;75.99
46394;BME280;32099;53.588;10.176;2022-12-07T12:48:01;100672.75;;;5.20;76.23
46394;BME280;32099;53.588;10.176;2022-12-07T12:50:45;100674.75;;;5.18;74.23
46394;BME280;32099;53.588;10.176;2022-12-07T12:53:20;100673.75;;;5.19;74.49
46394;BME280;32099;53.588;10.176;2022-12-07T12:58:28;100684.75;;;5.17;73.93
46394;BME280;32099;53.588;10.176;2022-12-07T13:04:14;100676.22;;;5.12;75.18
46394;BME280;32099;53.588;10.176;2022-12-07T13:06:43;100678.78;;;5.14;75.66
46394;BME280;32099;53.588;10.176;2022-12-07T13:09:17;100676.34;;;5.20;75.35
46394;BME280;32099;53.588;10.176;2022-12-07T13:11:47;100673.31;;;5.23;72.25
46394;BME280;32099;53.588;10.176;2022-12-07T13:14:56;100668.69;;;5.16;68.69
46394;BME280;32099;53.588;10.176;2022-12-07T13:17:08;100680.06;;;5.09;70.13
46394;BME280;32099;53.588;10.176;2022-12-07T13:25:09;100677.16;;;4.93;70.07
46394;BME280;32099;53.588;10.176;2022-12-07T13:27:38;100674.91;;;4.88;71.39
46394;BME280;32099;53.588;10.176;2022-12-07T13:30:12;100672.88;;;4.90;71.34
46394;BME280;32099;53.588;10.176;2022-12-07T13:32:40;100669.91;;;4.93;71.54
46394;BME280;32099;53.588;10.176;2022-12-07T13:37:58;100676.97;;;5.04;71.69
46394;BME280;32099;53.588;10.176;2022-12-07T13:40:24;100682.38;;;5.04;70.19
46394;BME280;32099;53.588;10.176;2022-12-07T13:43:03;100687.47;;;5.07;70.82
46394;BME280;32099;53.588;10.176;2022-12-07T13:45:37;100692.59;;;5.10;71.39
46394;BME280;32099;53.588;10.176;2022-12-07T13:48:30;100691.16;;;5.06;71.36
46394;BME280;32099;53.588;10.176;2022-12-07T13:50:58;100695.47;;;4.99;71.17
46394;BME280;32099;53.588;10.176;2022-12-07T13:53:24;100685.94;;;4.95;67.94
46394;BME280;32099;53.588;10.176;2022-12-07T13:55:53;100691.81;;;4.90;69.01
46394;BME280;32099;53.588;10.176;2022-12-07T13:58:18;100695.50;;;4.89;70.76
46394;BME280;32099;53.588;10.176;2022-12-07T14:00:44;100696.66;;;4.87;68.47
46394;BME280;32099;53.588;10.176;2022-12-07T14:05:38;100698.97;;;4.82;71.03
46394;BME280;32099;53.588;10.176;2022-12-07T14:10:56;100702.50;;;4.72;68.79
46394;BME280;32099;53.588;10.176;2022-12-07T14:13:27;100692.59;;;4.63;68.89
46394;BME280;32099;53.588;10.176;2022-12-07T14:15:56;100690.75;;;4.54;68.64
46394;BME280;32099;53.588;10.176;2022-12-07T14:21:03;100682.38;;;4.47;70.07
46394;BME280;32099;53.588;10.176;2022-12-07T14:23:29;100686.25;;;4.44;70.11
46394;BME280;32099;53.588;10.176;2022-12-07T14:26:04;100687.50;;;4.40;70.88
46394;BME280;32099;53.588;10.176;2022-12-07T14:28:36;100686.13;;;4.36;69.56
46394;BME280;32099;53.588;10.176;2022-12-07T14:31:02;100687.66;;;4.29;68.13
46394;BME280;32099;53.588;10.176;2022-12-07T14:33:33;100688.09;;;4.24;70.09
46394;BME280;32099;53.588;10.176;2022-12-07T14:35:59;100691.22;;;4.20;68.79
46394;BME280;32099;53.588;10.176;2022-12-07T14:38:24;100696.50;;;4.11;69.62
46394;BME280;32099;53.588;10.176;2022-12-07T14:40:51;100693.34;;;4.06;69.55